Spring Lake, New Jersey
Current Conditions -  °F | °C
As of 10:55 AM on Friday 28 Nov 2014 (Local Time) from KBLM Reporting Station
Overcast Overcast  
Wind Chill: 25°   Ceiling: 3500
Heat Index: 36°   Visibility: 10mi
Dew Point: 18°   Wind: 20mph
Humidity: 48%   Direction: 310°NW
Pressure: 30.19"   Gusts: 24mph
Location:  40.15°N, 74.03°W
Report Text: KBLM 281555Z AUTO 31017G21KT 10SM OVC035 02/M08 A3019 RMK AO1
Loading
Personal Weather Stations






























Interactive Weather Map New forecast layout! Learn more

10-Day Weather Forecast

Advertisements
Track Severe Weather on mobile